메인 페이지
METAR-TAF:

METAR-TAF

공항 :

알렉산드리아, 루이지애나, 미국

위도: 31-23-42N, 경도: 092-17-25W, 고도: 34m

현재 날씨관측

예보는 20분 전, 00:53시(UTC)에 발표되었습니다.
3kt
온도 27°C
습도 79%
기압 1014 hPa
시정: 16.1km
고도 12000ft 상공 구름 조금

METAR: KESF 210053Z AUTO 19003KT 10SM FEW120 27/23 A2995 RMK AO2 SLP138 T02670233

시각: 20:13 (01:13 UTC)


TAF: 누락

4,000개 이상의 공항 관측 자료 및 예보 (METAR 및 TAF 보고).

지도상에서 검색 가능한 기상관측소가 노란 점과 빨간 점으로 표시되어 있습니다.

기상관측소 명을 보려면 표시 위로 마우스를 이동하세요.

날씨 관측과 예보를 보려면 클릭하세요.

지도 변경 : 확대하려면 엑스 표시가 있는 녹색 버튼, 축소하려면 빼기 표시가 있는 녹색 버튼, 다음 페이지의 지도를 보려면 녹색 화살표를 클릭하세요.


METAR-TAF: